sensor_id;sensor_type;location;lat;lon;timestamp;P1;durP1;ratioP1;P2;durP2;ratioP2
37091;SDS011;23005;51.998;4.502;2022-08-21T00:00:36;16.98;;;3.50;;
37091;SDS011;23005;51.998;4.502;2022-08-21T00:02:33;15.98;;;4.00;;
37091;SDS011;23005;51.998;4.502;2022-08-21T00:04:23;17.10;;;3.70;;
37091;SDS011;23005;51.998;4.502;2022-08-21T00:06:19;13.05;;;3.65;;
37091;SDS011;23005;51.998;4.502;2022-08-21T00:08:10;16.75;;;4.18;;
37091;SDS011;23005;51.998;4.502;2022-08-21T00:10:02;16.52;;;3.63;;
37091;SDS011;23005;51.998;4.502;2022-08-21T00:11:55;14.05;;;3.78;;
37091;SDS011;23005;51.998;4.502;2022-08-21T00:13:46;12.05;;;3.85;;
37091;SDS011;23005;51.998;4.502;2022-08-21T00:15:37;9.95;;;3.45;;
37091;SDS011;23005;51.998;4.502;2022-08-21T00:17:28;17.70;;;4.07;;
37091;SDS011;23005;51.998;4.502;2022-08-21T00:19:19;12.07;;;3.85;;
37091;SDS011;23005;51.998;4.502;2022-08-21T00:21:10;15.00;;;3.40;;
37091;SDS011;23005;51.998;4.502;2022-08-21T00:23:02;11.80;;;3.28;;
37091;SDS011;23005;51.998;4.502;2022-08-21T00:24:53;18.13;;;4.13;;
37091;SDS011;23005;51.998;4.502;2022-08-21T00:26:45;12.18;;;3.20;;
37091;SDS011;23005;51.998;4.502;2022-08-21T00:30:27;14.95;;;4.07;;
37091;SDS011;23005;51.998;4.502;2022-08-21T00:32:19;13.50;;;4.40;;
37091;SDS011;23005;51.998;4.502;2022-08-21T00:34:11;12.48;;;3.80;;
37091;SDS011;23005;51.998;4.502;2022-08-21T00:37:54;16.88;;;4.78;;
37091;SDS011;23005;51.998;4.502;2022-08-21T00:39:44;15.18;;;4.35;;
37091;SDS011;23005;51.998;4.502;2022-08-21T00:41:36;15.93;;;4.13;;
37091;SDS011;23005;51.998;4.502;2022-08-21T00:43:30;15.40;;;3.83;;
37091;SDS011;23005;51.998;4.502;2022-08-21T00:45:23;16.45;;;3.90;;
37091;SDS011;23005;51.998;4.502;2022-08-21T00:47:15;14.35;;;4.03;;
37091;SDS011;23005;51.998;4.502;2022-08-21T00:49:06;16.45;;;3.67;;
37091;SDS011;23005;51.998;4.502;2022-08-21T00:51:00;12.60;;;4.00;;
37091;SDS011;23005;51.998;4.502;2022-08-21T00:52:56;15.75;;;3.42;;
37091;SDS011;23005;51.998;4.502;2022-08-21T00:54:48;16.40;;;3.60;;
37091;SDS011;23005;51.998;4.502;2022-08-21T00:56:40;12.57;;;3.67;;
37091;SDS011;23005;51.998;4.502;2022-08-21T00:58:33;12.47;;;3.13;;
37091;SDS011;23005;51.998;4.502;2022-08-21T01:00:28;14.77;;;3.60;;
37091;SDS011;23005;51.998;4.502;2022-08-21T01:02:21;14.52;;;3.95;;
37091;SDS011;23005;51.998;4.502;2022-08-21T01:04:12;14.80;;;3.50;;
37091;SDS011;23005;51.998;4.502;2022-08-21T01:06:04;15.63;;;3.40;;
37091;SDS011;23005;51.998;4.502;2022-08-21T01:07:56;13.68;;;3.45;;
37091;SDS011;23005;51.998;4.502;2022-08-21T01:09:47;9.25;;;3.25;;
37091;SDS011;23005;51.998;4.502;2022-08-21T01:11:38;10.80;;;3.07;;
37091;SDS011;23005;51.998;4.502;2022-08-21T01:13:31;14.63;;;2.90;;
37091;SDS011;23005;51.998;4.502;2022-08-21T01:15:27;19.90;;;3.92;;
37091;SDS011;23005;51.998;4.502;2022-08-21T01:17:23;15.60;;;3.33;;
37091;SDS011;23005;51.998;4.502;2022-08-21T01:19:14;14.43;;;3.30;;
37091;SDS011;23005;51.998;4.502;2022-08-21T01:21:11;10.90;;;3.30;;
37091;SDS011;23005;51.998;4.502;2022-08-21T01:23:04;18.80;;;3.72;;
37091;SDS011;23005;51.998;4.502;2022-08-21T01:24:56;13.63;;;3.10;;
37091;SDS011;23005;51.998;4.502;2022-08-21T01:26:46;12.20;;;3.45;;
37091;SDS011;23005;51.998;4.502;2022-08-21T01:28:42;14.80;;;3.42;;
37091;SDS011;23005;51.998;4.502;2022-08-21T01:30:37;12.38;;;3.50;;
37091;SDS011;23005;51.998;4.502;2022-08-21T01:32:31;14.88;;;3.35;;
37091;SDS011;23005;51.998;4.502;2022-08-21T01:34:22;11.90;;;3.25;;
37091;SDS011;23005;51.998;4.502;2022-08-21T01:36:15;13.98;;;4.47;;
37091;SDS011;23005;51.998;4.502;2022-08-21T01:38:06;11.23;;;3.28;;
37091;SDS011;23005;51.998;4.502;2022-08-21T01:39:56;12.15;;;3.65;;
37091;SDS011;23005;51.998;4.502;2022-08-21T01:41:48;10.30;;;3.50;;
37091;SDS011;23005;51.998;4.502;2022-08-21T01:43:38;15.15;;;3.53;;
37091;SDS011;23005;51.998;4.502;2022-08-21T01:45:30;13.55;;;3.67;;
37091;SDS011;23005;51.998;4.502;2022-08-21T01:47:20;13.05;;;3.90;;
37091;SDS011;23005;51.998;4.502;2022-08-21T01:49:11;12.20;;;3.58;;
37091;SDS011;23005;51.998;4.502;2022-08-21T01:51:02;13.45;;;3.75;;
37091;SDS011;23005;51.998;4.502;2022-08-21T01:52:55;12.98;;;3.75;;
37091;SDS011;23005;51.998;4.502;2022-08-21T01:56:47;16.98;;;3.88;;
37091;SDS011;23005;51.998;4.502;2022-08-21T01:58:42;12.20;;;3.85;;
37091;SDS011;23005;51.998;4.502;2022-08-21T02:00:36;20.63;;;4.55;;
37091;SDS011;23005;51.998;4.502;2022-08-21T02:02:27;21.05;;;4.45;;
37091;SDS011;23005;51.998;4.502;2022-08-21T02:04:18;12.63;;;4.45;;
37091;SDS011;23005;51.998;4.502;2022-08-21T02:06:11;16.42;;;4.93;;
37091;SDS011;23005;51.998;4.502;2022-08-21T02:08:06;18.55;;;4.25;;
37091;SDS011;23005;51.998;4.502;2022-08-21T02:09:56;13.75;;;3.85;;
37091;SDS011;23005;51.998;4.502;2022-08-21T02:11:47;17.33;;;4.15;;
37091;SDS011;23005;51.998;4.502;2022-08-21T02:13:38;17.60;;;4.85;;
37091;SDS011;23005;51.998;4.502;2022-08-21T02:15:29;17.20;;;4.15;;
37091;SDS011;23005;51.998;4.502;2022-08-21T02:17:20;16.40;;;4.68;;
37091;SDS011;23005;51.998;4.502;2022-08-21T02:19:11;17.98;;;4.00;;
37091;SDS011;23005;51.998;4.502;2022-08-21T02:21:04;17.27;;;3.83;;
37091;SDS011;23005;51.998;4.502;2022-08-21T02:22:56;11.90;;;3.20;;
37091;SDS011;23005;51.998;4.502;2022-08-21T02:24:48;12.75;;;3.50;;
37091;SDS011;23005;51.998;4.502;2022-08-21T02:26:44;13.57;;;3.42;;
37091;SDS011;23005;51.998;4.502;2022-08-21T02:28:35;15.73;;;3.22;;
37091;SDS011;23005;51.998;4.502;2022-08-21T02:34:10;14.90;;;3.88;;
37091;SDS011;23005;51.998;4.502;2022-08-21T02:36:01;13.55;;;3.35;;
37091;SDS011;23005;51.998;4.502;2022-08-21T02:37:55;11.95;;;3.05;;
37091;SDS011;23005;51.998;4.502;2022-08-21T02:39:49;14.52;;;3.35;;
37091;SDS011;23005;51.998;4.502;2022-08-21T02:41:39;13.13;;;3.10;;
37091;SDS011;23005;51.998;4.502;2022-08-21T02:43:30;10.00;;;2.78;;
37091;SDS011;23005;51.998;4.502;2022-08-21T02:45:21;14.93;;;3.00;;
37091;SDS011;23005;51.998;4.502;2022-08-21T02:47:13;16.73;;;3.38;;
37091;SDS011;23005;51.998;4.502;2022-08-21T02:49:04;13.95;;;3.13;;
37091;SDS011;23005;51.998;4.502;2022-08-21T02:50:56;13.85;;;3.35;;
37091;SDS011;23005;51.998;4.502;2022-08-21T02:52:49;12.75;;;3.40;;
37091;SDS011;23005;51.998;4.502;2022-08-21T02:54:44;15.30;;;3.38;;
37091;SDS011;23005;51.998;4.502;2022-08-21T02:56:36;22.67;;;3.70;;
37091;SDS011;23005;51.998;4.502;2022-08-21T02:58:27;14.35;;;3.00;;
37091;SDS011;23005;51.998;4.502;2022-08-21T03:00:26;14.57;;;3.50;;
37091;SDS011;23005;51.998;4.502;2022-08-21T03:02:19;12.63;;;3.20;;
37091;SDS011;23005;51.998;4.502;2022-08-21T03:04:10;16.58;;;3.42;;
37091;SDS011;23005;51.998;4.502;2022-08-21T03:06:01;15.82;;;3.53;;
37091;SDS011;23005;51.998;4.502;2022-08-21T03:07:51;15.95;;;3.65;;
37091;SDS011;23005;51.998;4.502;2022-08-21T03:09:43;15.60;;;3.20;;
37091;SDS011;23005;51.998;4.502;2022-08-21T03:11:46;13.98;;;3.05;;
37091;SDS011;23005;51.998;4.502;2022-08-21T03:13:37;18.58;;;3.67;;
37091;SDS011;23005;51.998;4.502;2022-08-21T03:15:29;18.45;;;3.55;;
37091;SDS011;23005;51.998;4.502;2022-08-21T03:17:21;16.20;;;3.50;;
37091;SDS011;23005;51.998;4.502;2022-08-21T03:19:19;13.48;;;2.70;;
37091;SDS011;23005;51.998;4.502;2022-08-21T03:21:09;10.50;;;2.72;;
37091;SDS011;23005;51.998;4.502;2022-08-21T03:23:00;17.33;;;3.17;;
37091;SDS011;23005;51.998;4.502;2022-08-21T03:24:55;11.98;;;2.95;;
37091;SDS011;23005;51.998;4.502;2022-08-21T03:26:47;13.13;;;3.20;;
37091;SDS011;23005;51.998;4.502;2022-08-21T03:28:38;14.73;;;3.50;;
37091;SDS011;23005;51.998;4.502;2022-08-21T03:30:29;16.85;;;3.22;;
37091;SDS011;23005;51.998;4.502;2022-08-21T03:32:20;11.32;;;3.05;;
37091;SDS011;23005;51.998;4.502;2022-08-21T03:34:11;14.77;;;3.30;;
37091;SDS011;23005;51.998;4.502;2022-08-21T03:36:03;13.32;;;3.13;;
37091;SDS011;23005;51.998;4.502;2022-08-21T03:37:57;14.55;;;3.17;;
37091;SDS011;23005;51.998;4.502;2022-08-21T03:39:47;12.35;;;3.47;;
37091;SDS011;23005;51.998;4.502;2022-08-21T03:41:38;12.15;;;3.22;;
37091;SDS011;23005;51.998;4.502;2022-08-21T03:43:30;11.85;;;3.08;;
37091;SDS011;23005;51.998;4.502;2022-08-21T03:45:22;18.20;;;3.60;;
37091;SDS011;23005;51.998;4.502;2022-08-21T03:47:12;17.88;;;3.42;;
37091;SDS011;23005;51.998;4.502;2022-08-21T03:49:03;14.63;;;3.03;;
37091;SDS011;23005;51.998;4.502;2022-08-21T03:50:54;16.00;;;3.67;;
37091;SDS011;23005;51.998;4.502;2022-08-21T03:52:45;19.27;;;3.55;;
37091;SDS011;23005;51.998;4.502;2022-08-21T03:54:36;17.08;;;3.88;;
37091;SDS011;23005;51.998;4.502;2022-08-21T03:56:26;17.58;;;3.60;;
37091;SDS011;23005;51.998;4.502;2022-08-21T03:58:18;15.05;;;3.28;;
37091;SDS011;23005;51.998;4.502;2022-08-21T04:00:14;14.07;;;3.25;;
37091;SDS011;23005;51.998;4.502;2022-08-21T04:02:06;20.85;;;4.35;;
37091;SDS011;23005;51.998;4.502;2022-08-21T04:03:57;16.63;;;3.83;;
37091;SDS011;23005;51.998;4.502;2022-08-21T04:05:48;16.48;;;3.72;;
37091;SDS011;23005;51.998;4.502;2022-08-21T04:07:39;20.67;;;4.40;;
37091;SDS011;23005;51.998;4.502;2022-08-21T04:09:31;14.63;;;3.80;;
37091;SDS011;23005;51.998;4.502;2022-08-21T04:11:21;13.05;;;3.60;;
37091;SDS011;23005;51.998;4.502;2022-08-21T04:13:12;17.08;;;3.55;;
37091;SDS011;23005;51.998;4.502;2022-08-21T04:15:03;10.07;;;3.35;;
37091;SDS011;23005;51.998;4.502;2022-08-21T04:16:57;14.20;;;3.80;;
37091;SDS011;23005;51.998;4.502;2022-08-21T04:18:47;12.38;;;3.78;;
37091;SDS011;23005;51.998;4.502;2022-08-21T04:20:38;18.52;;;4.32;;
37091;SDS011;23005;51.998;4.502;2022-08-21T04:22:34;17.80;;;3.33;;
37091;SDS011;23005;51.998;4.502;2022-08-21T04:24:25;17.05;;;3.53;;
37091;SDS011;23005;51.998;4.502;2022-08-21T04:26:19;17.15;;;4.00;;
37091;SDS011;23005;51.998;4.502;2022-08-21T04:28:09;14.85;;;3.85;;
37091;SDS011;23005;51.998;4.502;2022-08-21T04:30:00;13.98;;;3.80;;
37091;SDS011;23005;51.998;4.502;2022-08-21T04:31:51;18.95;;;4.25;;
37091;SDS011;23005;51.998;4.502;2022-08-21T04:33:43;23.88;;;4.38;;
37091;SDS011;23005;51.998;4.502;2022-08-21T04:35:34;20.58;;;4.50;;
37091;SDS011;23005;51.998;4.502;2022-08-21T04:37:25;20.80;;;4.35;;
37091;SDS011;23005;51.998;4.502;2022-08-21T04:39:15;15.85;;;4.30;;
37091;SDS011;23005;51.998;4.502;2022-08-21T04:41:07;26.23;;;4.40;;
37091;SDS011;23005;51.998;4.502;2022-08-21T04:43:01;18.60;;;4.63;;
37091;SDS011;23005;51.998;4.502;2022-08-21T04:44:55;25.88;;;5.22;;
37091;SDS011;23005;51.998;4.502;2022-08-21T04:46:46;29.83;;;4.53;;
37091;SDS011;23005;51.998;4.502;2022-08-21T04:48:37;20.98;;;4.75;;
37091;SDS011;23005;51.998;4.502;2022-08-21T04:50:29;18.15;;;4.55;;
37091;SDS011;23005;51.998;4.502;2022-08-21T04:52:27;22.45;;;5.15;;
37091;SDS011;23005;51.998;4.502;2022-08-21T04:54:18;21.35;;;5.25;;
37091;SDS011;23005;51.998;4.502;2022-08-21T04:56:12;20.67;;;4.70;;
37091;SDS011;23005;51.998;4.502;2022-08-21T04:58:05;17.45;;;4.72;;
37091;SDS011;23005;51.998;4.502;2022-08-21T05:01:48;19.67;;;4.45;;
37091;SDS011;23005;51.998;4.502;2022-08-21T05:03:40;24.08;;;4.68;;
37091;SDS011;23005;51.998;4.502;2022-08-21T05:05:34;25.00;;;5.53;;
37091;SDS011;23005;51.998;4.502;2022-08-21T05:07:26;21.25;;;4.78;;
37091;SDS011;23005;51.998;4.502;2022-08-21T05:09:32;28.75;;;7.28;;
37091;SDS011;23005;51.998;4.502;2022-08-21T05:11:23;27.05;;;5.95;;
37091;SDS011;23005;51.998;4.502;2022-08-21T05:13:14;38.58;;;6.28;;
37091;SDS011;23005;51.998;4.502;2022-08-21T05:15:06;22.08;;;5.32;;
37091;SDS011;23005;51.998;4.502;2022-08-21T05:17:02;23.67;;;5.35;;
37091;SDS011;23005;51.998;4.502;2022-08-21T05:18:53;23.13;;;5.47;;
37091;SDS011;23005;51.998;4.502;2022-08-21T05:20:45;27.38;;;4.88;;
37091;SDS011;23005;51.998;4.502;2022-08-21T05:24:27;21.95;;;5.40;;
37091;SDS011;23005;51.998;4.502;2022-08-21T05:26:18;19.75;;;6.20;;
37091;SDS011;23005;51.998;4.502;2022-08-21T05:28:09;21.05;;;5.82;;
37091;SDS011;23005;51.998;4.502;2022-08-21T05:30:00;25.35;;;5.90;;
37091;SDS011;23005;51.998;4.502;2022-08-21T05:31:51;24.17;;;5.78;;
37091;SDS011;23005;51.998;4.502;2022-08-21T05:33:42;24.65;;;6.18;;
37091;SDS011;23005;51.998;4.502;2022-08-21T05:35:33;28.08;;;6.20;;
37091;SDS011;23005;51.998;4.502;2022-08-21T05:37:25;23.40;;;5.65;;
37091;SDS011;23005;51.998;4.502;2022-08-21T05:41:07;22.75;;;5.55;;
37091;SDS011;23005;51.998;4.502;2022-08-21T05:42:58;25.98;;;6.95;;
37091;SDS011;23005;51.998;4.502;2022-08-21T05:44:49;28.20;;;6.90;;
37091;SDS011;23005;51.998;4.502;2022-08-21T05:46:41;23.73;;;6.57;;
37091;SDS011;23005;51.998;4.502;2022-08-21T05:48:32;28.83;;;7.18;;
37091;SDS011;23005;51.998;4.502;2022-08-21T05:50:23;24.80;;;7.20;;
37091;SDS011;23005;51.998;4.502;2022-08-21T05:52:18;36.05;;;7.78;;
37091;SDS011;23005;51.998;4.502;2022-08-21T05:54:11;28.45;;;7.20;;
37091;SDS011;23005;51.998;4.502;2022-08-21T05:56:02;42.40;;;7.13;;
37091;SDS011;23005;51.998;4.502;2022-08-21T05:57:53;22.23;;;6.95;;
37091;SDS011;23005;51.998;4.502;2022-08-21T05:59:44;26.30;;;6.63;;
37091;SDS011;23005;51.998;4.502;2022-08-21T06:01:35;31.85;;;7.88;;
37091;SDS011;23005;51.998;4.502;2022-08-21T06:03:28;28.90;;;6.85;;
37091;SDS011;23005;51.998;4.502;2022-08-21T06:05:21;21.92;;;7.40;;
37091;SDS011;23005;51.998;4.502;2022-08-21T06:07:26;22.05;;;7.00;;
37091;SDS011;23005;51.998;4.502;2022-08-21T06:09:18;19.05;;;6.57;;
37091;SDS011;23005;51.998;4.502;2022-08-21T06:11:09;26.63;;;7.55;;
37091;SDS011;23005;51.998;4.502;2022-08-21T06:12:59;25.45;;;6.95;;
37091;SDS011;23005;51.998;4.502;2022-08-21T06:14:50;33.72;;;6.45;;
37091;SDS011;23005;51.998;4.502;2022-08-21T06:16:41;21.90;;;7.03;;
37091;SDS011;23005;51.998;4.502;2022-08-21T06:18:32;33.55;;;7.32;;
37091;SDS011;23005;51.998;4.502;2022-08-21T06:20:24;26.33;;;7.03;;
37091;SDS011;23005;51.998;4.502;2022-08-21T06:22:15;23.17;;;6.68;;
37091;SDS011;23005;51.998;4.502;2022-08-21T06:24:05;26.02;;;6.25;;
37091;SDS011;23005;51.998;4.502;2022-08-21T06:25:57;27.70;;;7.20;;
37091;SDS011;23005;51.998;4.502;2022-08-21T06:27:48;28.08;;;7.65;;
37091;SDS011;23005;51.998;4.502;2022-08-21T06:29:39;25.70;;;6.47;;
37091;SDS011;23005;51.998;4.502;2022-08-21T06:31:33;25.10;;;7.00;;
37091;SDS011;23005;51.998;4.502;2022-08-21T06:33:24;23.08;;;6.78;;
37091;SDS011;23005;51.998;4.502;2022-08-21T06:35:21;29.33;;;8.13;;
37091;SDS011;23005;51.998;4.502;2022-08-21T06:37:12;28.60;;;7.90;;
37091;SDS011;23005;51.998;4.502;2022-08-21T06:39:03;32.95;;;8.82;;
37091;SDS011;23005;51.998;4.502;2022-08-21T06:41:07;37.85;;;8.43;;
37091;SDS011;23005;51.998;4.502;2022-08-21T06:43:04;28.27;;;8.15;;
37091;SDS011;23005;51.998;4.502;2022-08-21T06:44:57;28.63;;;7.65;;
37091;SDS011;23005;51.998;4.502;2022-08-21T06:46:48;29.50;;;7.47;;
37091;SDS011;23005;51.998;4.502;2022-08-21T06:48:39;26.42;;;7.55;;
37091;SDS011;23005;51.998;4.502;2022-08-21T06:50:31;32.75;;;7.07;;
37091;SDS011;23005;51.998;4.502;2022-08-21T06:52:22;26.10;;;7.25;;
37091;SDS011;23005;51.998;4.502;2022-08-21T06:54:13;33.78;;;8.00;;
37091;SDS011;23005;51.998;4.502;2022-08-21T06:56:04;33.17;;;6.90;;
37091;SDS011;23005;51.998;4.502;2022-08-21T06:57:56;25.25;;;6.30;;
37091;SDS011;23005;51.998;4.502;2022-08-21T06:59:47;24.30;;;6.55;;
37091;SDS011;23005;51.998;4.502;2022-08-21T07:01:38;30.33;;;7.53;;
37091;SDS011;23005;51.998;4.502;2022-08-21T07:03:33;29.42;;;6.30;;
37091;SDS011;23005;51.998;4.502;2022-08-21T07:05:26;36.58;;;6.82;;
37091;SDS011;23005;51.998;4.502;2022-08-21T07:07:18;25.80;;;6.45;;
37091;SDS011;23005;51.998;4.502;2022-08-21T07:09:09;21.92;;;6.50;;
37091;SDS011;23005;51.998;4.502;2022-08-21T07:11:00;27.58;;;6.68;;
37091;SDS011;23005;51.998;4.502;2022-08-21T07:12:58;26.00;;;6.10;;
37091;SDS011;23005;51.998;4.502;2022-08-21T07:14:50;22.70;;;6.03;;
37091;SDS011;23005;51.998;4.502;2022-08-21T07:16:41;30.88;;;6.63;;
37091;SDS011;23005;51.998;4.502;2022-08-21T07:18:32;27.92;;;6.97;;
37091;SDS011;23005;51.998;4.502;2022-08-21T07:20:22;24.25;;;5.72;;
37091;SDS011;23005;51.998;4.502;2022-08-21T07:22:13;26.52;;;5.82;;
37091;SDS011;23005;51.998;4.502;2022-08-21T07:24:08;24.23;;;6.30;;
37091;SDS011;23005;51.998;4.502;2022-08-21T07:25:59;32.45;;;7.15;;
37091;SDS011;23005;51.998;4.502;2022-08-21T07:27:50;27.85;;;6.35;;
37091;SDS011;23005;51.998;4.502;2022-08-21T07:29:42;26.35;;;6.40;;
37091;SDS011;23005;51.998;4.502;2022-08-21T07:31:33;31.70;;;6.57;;
37091;SDS011;23005;51.998;4.502;2022-08-21T07:33:25;24.95;;;6.47;;
37091;SDS011;23005;51.998;4.502;2022-08-21T07:35:18;21.75;;;5.80;;
37091;SDS011;23005;51.998;4.502;2022-08-21T07:37:09;32.95;;;6.60;;
37091;SDS011;23005;51.998;4.502;2022-08-21T07:39:00;33.50;;;7.35;;
37091;SDS011;23005;51.998;4.502;2022-08-21T07:40:51;26.27;;;6.30;;
37091;SDS011;23005;51.998;4.502;2022-08-21T07:42:47;24.38;;;5.93;;
37091;SDS011;23005;51.998;4.502;2022-08-21T07:44:38;24.42;;;5.95;;
37091;SDS011;23005;51.998;4.502;2022-08-21T07:46:30;23.27;;;5.75;;
37091;SDS011;23005;51.998;4.502;2022-08-21T07:50:12;24.10;;;5.53;;
37091;SDS011;23005;51.998;4.502;2022-08-21T07:52:04;25.52;;;5.20;;
37091;SDS011;23005;51.998;4.502;2022-08-21T07:53:56;22.55;;;4.97;;
37091;SDS011;23005;51.998;4.502;2022-08-21T07:55:48;25.80;;;6.18;;
37091;SDS011;23005;51.998;4.502;2022-08-21T07:57:39;27.70;;;5.55;;
37091;SDS011;23005;51.998;4.502;2022-08-21T07:59:30;33.22;;;5.65;;
37091;SDS011;23005;51.998;4.502;2022-08-21T08:01:20;26.00;;;5.13;;
37091;SDS011;23005;51.998;4.502;2022-08-21T08:03:13;21.80;;;4.53;;
37091;SDS011;23005;51.998;4.502;2022-08-21T08:05:10;26.63;;;5.32;;
37091;SDS011;23005;51.998;4.502;2022-08-21T08:07:01;23.65;;;5.15;;
37091;SDS011;23005;51.998;4.502;2022-08-21T08:08:52;16.90;;;4.18;;
37091;SDS011;23005;51.998;4.502;2022-08-21T08:10:43;23.60;;;4.90;;
37091;SDS011;23005;51.998;4.502;2022-08-21T08:12:35;19.85;;;4.88;;
37091;SDS011;23005;51.998;4.502;2022-08-21T08:14:27;18.77;;;4.10;;
37091;SDS011;23005;51.998;4.502;2022-08-21T08:16:20;18.38;;;4.10;;
37091;SDS011;23005;51.998;4.502;2022-08-21T08:18:12;22.13;;;4.20;;
37091;SDS011;23005;51.998;4.502;2022-08-21T08:20:03;22.15;;;4.70;;
37091;SDS011;23005;51.998;4.502;2022-08-21T08:21:55;15.05;;;3.67;;
37091;SDS011;23005;51.998;4.502;2022-08-21T08:23:45;27.83;;;5.30;;
37091;SDS011;23005;51.998;4.502;2022-08-21T08:25:37;25.65;;;4.80;;
37091;SDS011;23005;51.998;4.502;2022-08-21T08:27:28;22.02;;;4.30;;
37091;SDS011;23005;51.998;4.502;2022-08-21T08:29:19;20.85;;;5.18;;
37091;SDS011;23005;51.998;4.502;2022-08-21T08:31:10;17.63;;;4.05;;
37091;SDS011;23005;51.998;4.502;2022-08-21T08:33:01;17.50;;;4.40;;
37091;SDS011;23005;51.998;4.502;2022-08-21T08:34:53;23.95;;;5.13;;
37091;SDS011;23005;51.998;4.502;2022-08-21T08:36:43;19.80;;;4.25;;
37091;SDS011;23005;51.998;4.502;2022-08-21T08:38:34;20.15;;;3.83;;
37091;SDS011;23005;51.998;4.502;2022-08-21T08:40:27;16.10;;;4.05;;
37091;SDS011;23005;51.998;4.502;2022-08-21T08:42:32;24.13;;;3.97;;
37091;SDS011;23005;51.998;4.502;2022-08-21T08:44:25;17.48;;;4.00;;
37091;SDS011;23005;51.998;4.502;2022-08-21T08:46:19;13.77;;;3.67;;
37091;SDS011;23005;51.998;4.502;2022-08-21T08:48:24;22.17;;;4.05;;
37091;SDS011;23005;51.998;4.502;2022-08-21T08:50:33;21.95;;;4.07;;
37091;SDS011;23005;51.998;4.502;2022-08-21T08:54:25;18.08;;;4.18;;
37091;SDS011;23005;51.998;4.502;2022-08-21T08:56:26;20.50;;;4.43;;
37091;SDS011;23005;51.998;4.502;2022-08-21T08:58:20;21.40;;;4.57;;
37091;SDS011;23005;51.998;4.502;2022-08-21T09:00:18;18.92;;;3.90;;
37091;SDS011;23005;51.998;4.502;2022-08-21T09:02:11;17.10;;;3.97;;
37091;SDS011;23005;51.998;4.502;2022-08-21T09:04:04;21.33;;;4.05;;
37091;SDS011;23005;51.998;4.502;2022-08-21T09:05:58;15.30;;;3.38;;
37091;SDS011;23005;51.998;4.502;2022-08-21T09:08:00;25.13;;;4.43;;
37091;SDS011;23005;51.998;4.502;2022-08-21T09:10:12;23.53;;;4.50;;
37091;SDS011;23005;51.998;4.502;2022-08-21T09:12:09;14.93;;;3.10;;
37091;SDS011;23005;51.998;4.502;2022-08-21T09:14:08;15.30;;;3.88;;
37091;SDS011;23005;51.998;4.502;2022-08-21T09:16:08;22.55;;;4.82;;
37091;SDS011;23005;51.998;4.502;2022-08-21T09:18:22;18.58;;;4.28;;
37091;SDS011;23005;51.998;4.502;2022-08-21T09:20:29;23.20;;;3.90;;
37091;SDS011;23005;51.998;4.502;2022-08-21T09:22:30;15.07;;;3.90;;
37091;SDS011;23005;51.998;4.502;2022-08-21T09:24:33;17.92;;;3.60;;
37091;SDS011;23005;51.998;4.502;2022-08-21T09:26:47;16.08;;;3.22;;
37091;SDS011;23005;51.998;4.502;2022-08-21T09:28:47;18.08;;;3.33;;
37091;SDS011;23005;51.998;4.502;2022-08-21T09:30:43;17.13;;;3.42;;
37091;SDS011;23005;51.998;4.502;2022-08-21T09:32:34;12.75;;;3.45;;
37091;SDS011;23005;51.998;4.502;2022-08-21T09:34:28;16.33;;;3.33;;
37091;SDS011;23005;51.998;4.502;2022-08-21T09:36:24;17.35;;;3.38;;
37091;SDS011;23005;51.998;4.502;2022-08-21T09:38:29;14.63;;;3.28;;
37091;SDS011;23005;51.998;4.502;2022-08-21T09:40:26;12.23;;;2.70;;
37091;SDS011;23005;51.998;4.502;2022-08-21T09:42:22;17.90;;;3.35;;
37091;SDS011;23005;51.998;4.502;2022-08-21T09:44:23;13.45;;;3.08;;
37091;SDS011;23005;51.998;4.502;2022-08-21T09:46:20;17.45;;;3.47;;
37091;SDS011;23005;51.998;4.502;2022-08-21T09:48:13;15.77;;;3.40;;
37091;SDS011;23005;51.998;4.502;2022-08-21T09:50:09;16.70;;;3.95;;
37091;SDS011;23005;51.998;4.502;2022-08-21T09:52:03;15.18;;;3.75;;
37091;SDS011;23005;51.998;4.502;2022-08-21T09:54:14;11.18;;;3.03;;
37091;SDS011;23005;51.998;4.502;2022-08-21T09:56:16;18.63;;;4.40;;
37091;SDS011;23005;51.998;4.502;2022-08-21T09:58:14;18.25;;;2.92;;
37091;SDS011;23005;51.998;4.502;2022-08-21T10:00:08;18.38;;;3.15;;
37091;SDS011;23005;51.998;4.502;2022-08-21T10:02:25;20.45;;;4.00;;
37091;SDS011;23005;51.998;4.502;2022-08-21T10:04:20;16.05;;;3.28;;
37091;SDS011;23005;51.998;4.502;2022-08-21T10:06:21;13.13;;;3.10;;
37091;SDS011;23005;51.998;4.502;2022-08-21T10:08:17;16.27;;;3.03;;
37091;SDS011;23005;51.998;4.502;2022-08-21T10:10:15;14.02;;;3.55;;
37091;SDS011;23005;51.998;4.502;2022-08-21T10:12:10;24.42;;;3.67;;
37091;SDS011;23005;51.998;4.502;2022-08-21T10:14:13;11.88;;;3.35;;
37091;SDS011;23005;51.998;4.502;2022-08-21T10:16:14;19.52;;;3.40;;
37091;SDS011;23005;51.998;4.502;2022-08-21T10:18:18;17.70;;;3.05;;
37091;SDS011;23005;51.998;4.502;2022-08-21T10:20:17;11.27;;;2.72;;
37091;SDS011;23005;51.998;4.502;2022-08-21T10:22:16;15.52;;;2.75;;
37091;SDS011;23005;51.998;4.502;2022-08-21T10:24:20;20.55;;;3.20;;
37091;SDS011;23005;51.998;4.502;2022-08-21T10:26:27;16.88;;;3.75;;
37091;SDS011;23005;51.998;4.502;2022-08-21T10:28:31;12.32;;;2.78;;
37091;SDS011;23005;51.998;4.502;2022-08-21T10:30:33;18.25;;;3.88;;
37091;SDS011;23005;51.998;4.502;2022-08-21T10:32:42;15.85;;;2.90;;
37091;SDS011;23005;51.998;4.502;2022-08-21T10:34:59;10.63;;;2.58;;
37091;SDS011;23005;51.998;4.502;2022-08-21T10:37:01;15.30;;;3.03;;
37091;SDS011;23005;51.998;4.502;2022-08-21T10:39:10;14.27;;;2.65;;
37091;SDS011;23005;51.998;4.502;2022-08-21T10:41:31;15.25;;;3.40;;
37091;SDS011;23005;51.998;4.502;2022-08-21T10:43:39;17.88;;;3.55;;
37091;SDS011;23005;51.998;4.502;2022-08-21T10:45:42;11.70;;;2.05;;
37091;SDS011;23005;51.998;4.502;2022-08-21T10:47:46;15.45;;;2.78;;
37091;SDS011;23005;51.998;4.502;2022-08-21T10:49:48;13.65;;;2.88;;
37091;SDS011;23005;51.998;4.502;2022-08-21T10:51:53;15.60;;;2.88;;
37091;SDS011;23005;51.998;4.502;2022-08-21T10:54:12;17.70;;;3.55;;
37091;SDS011;23005;51.998;4.502;2022-08-21T10:56:16;10.98;;;2.42;;
37091;SDS011;23005;51.998;4.502;2022-08-21T10:58:14;14.82;;;2.72;;
37091;SDS011;23005;51.998;4.502;2022-08-21T11:00:12;11.20;;;2.83;;
37091;SDS011;23005;51.998;4.502;2022-08-21T11:02:09;12.27;;;2.55;;
37091;SDS011;23005;51.998;4.502;2022-08-21T11:04:11;13.20;;;2.83;;
37091;SDS011;23005;51.998;4.502;2022-08-21T11:06:09;8.52;;;2.67;;
37091;SDS011;23005;51.998;4.502;2022-08-21T11:08:06;12.77;;;2.50;;
37091;SDS011;23005;51.998;4.502;2022-08-21T11:10:05;11.43;;;2.30;;
37091;SDS011;23005;51.998;4.502;2022-08-21T11:12:07;11.20;;;2.00;;
37091;SDS011;23005;51.998;4.502;2022-08-21T11:14:18;10.38;;;2.42;;
37091;SDS011;23005;51.998;4.502;2022-08-21T11:16:21;15.95;;;3.05;;
37091;SDS011;23005;51.998;4.502;2022-08-21T11:18:22;12.25;;;2.28;;
37091;SDS011;23005;51.998;4.502;2022-08-21T11:20:20;10.90;;;2.45;;
37091;SDS011;23005;51.998;4.502;2022-08-21T11:22:18;10.48;;;2.42;;
37091;SDS011;23005;51.998;4.502;2022-08-21T11:24:22;15.15;;;2.80;;
37091;SDS011;23005;51.998;4.502;2022-08-21T11:26:22;10.32;;;2.63;;
37091;SDS011;23005;51.998;4.502;2022-08-21T11:28:21;11.27;;;2.10;;
37091;SDS011;23005;51.998;4.502;2022-08-21T11:30:19;10.77;;;2.60;;
37091;SDS011;23005;51.998;4.502;2022-08-21T11:32:22;10.52;;;2.92;;
37091;SDS011;23005;51.998;4.502;2022-08-21T11:34:38;11.45;;;2.20;;
37091;SDS011;23005;51.998;4.502;2022-08-21T11:36:42;11.50;;;2.30;;
37091;SDS011;23005;51.998;4.502;2022-08-21T11:38:39;10.90;;;2.58;;